sensor_id;sensor_type;location;lat;lon;timestamp;pressure;altitude;pressure_sealevel;temperature;humidity
70323;BME280;57735;56.264;43.898;2023-02-18T00:00:19;101077.13;;;-3.93;68.62
70323;BME280;57735;56.264;43.898;2023-02-18T00:02:52;101073.66;;;-3.93;68.80
70323;BME280;57735;56.264;43.898;2023-02-18T00:05:25;101066.66;;;-3.91;69.01
70323;BME280;57735;56.264;43.898;2023-02-18T00:07:58;101072.47;;;-3.83;69.19
70323;BME280;57735;56.264;43.898;2023-02-18T00:10:29;101067.22;;;-3.81;69.00
70323;BME280;57735;56.264;43.898;2023-02-18T00:13:03;101065.53;;;-3.82;68.74
70323;BME280;57735;56.264;43.898;2023-02-18T00:15:35;101063.94;;;-3.87;68.69
70323;BME280;57735;56.264;43.898;2023-02-18T00:18:06;101055.31;;;-3.89;68.92
70323;BME280;57735;56.264;43.898;2023-02-18T00:20:38;101054.47;;;-3.89;69.22
70323;BME280;57735;56.264;43.898;2023-02-18T00:23:09;101050.84;;;-3.85;68.90
70323;BME280;57735;56.264;43.898;2023-02-18T00:25:42;101045.75;;;-3.88;68.40
70323;BME280;57735;56.264;43.898;2023-02-18T00:28:13;101051.00;;;-3.90;68.76
70323;BME280;57735;56.264;43.898;2023-02-18T00:30:43;101041.63;;;-3.95;68.54
70323;BME280;57735;56.264;43.898;2023-02-18T00:33:14;101037.44;;;-4.01;68.58
70323;BME280;57735;56.264;43.898;2023-02-18T00:35:45;101042.63;;;-4.01;68.89
70323;BME280;57735;56.264;43.898;2023-02-18T00:38:16;101040.09;;;-4.02;69.04
70323;BME280;57735;56.264;43.898;2023-02-18T00:40:47;101039.13;;;-4.00;69.05
70323;BME280;57735;56.264;43.898;2023-02-18T00:43:17;101028.69;;;-3.98;69.28
70323;BME280;57735;56.264;43.898;2023-02-18T00:45:48;101033.75;;;-3.94;69.18
70323;BME280;57735;56.264;43.898;2023-02-18T00:48:19;101026.84;;;-3.95;68.95
70323;BME280;57735;56.264;43.898;2023-02-18T00:50:51;101023.34;;;-3.94;68.86
70323;BME280;57735;56.264;43.898;2023-02-18T00:53:22;101030.38;;;-3.97;68.74
70323;BME280;57735;56.264;43.898;2023-02-18T00:55:53;101021.75;;;-3.99;68.62
70323;BME280;57735;56.264;43.898;2023-02-18T00:58:27;101014.81;;;-3.99;68.91
70323;BME280;57735;56.264;43.898;2023-02-18T01:00:58;101007.19;;;-4.05;68.37
70323;BME280;57735;56.264;43.898;2023-02-18T01:03:31;101018.50;;;-4.06;68.64
70323;BME280;57735;56.264;43.898;2023-02-18T01:06:03;101023.81;;;-4.09;69.07
70323;BME280;57735;56.264;43.898;2023-02-18T01:08:36;101007.53;;;-4.17;68.58
70323;BME280;57735;56.264;43.898;2023-02-18T01:11:08;101008.44;;;-4.18;69.18
70323;BME280;57735;56.264;43.898;2023-02-18T01:13:40;101008.59;;;-4.23;69.08
70323;BME280;57735;56.264;43.898;2023-02-18T01:16:11;101000.06;;;-4.28;69.05
70323;BME280;57735;56.264;43.898;2023-02-18T01:18:42;101001.09;;;-4.33;69.02
70323;BME280;57735;56.264;43.898;2023-02-18T01:21:13;100993.31;;;-4.35;68.98
70323;BME280;57735;56.264;43.898;2023-02-18T01:23:44;100991.56;;;-4.34;68.92
70323;BME280;57735;56.264;43.898;2023-02-18T01:26:15;100981.97;;;-4.32;69.14
70323;BME280;57735;56.264;43.898;2023-02-18T01:28:46;100989.78;;;-4.32;69.15
70323;BME280;57735;56.264;43.898;2023-02-18T01:31:16;100980.88;;;-4.24;69.76
70323;BME280;57735;56.264;43.898;2023-02-18T01:33:50;100985.81;;;-4.16;68.93
70323;BME280;57735;56.264;43.898;2023-02-18T01:36:27;100974.44;;;-4.12;69.09
70323;BME280;57735;56.264;43.898;2023-02-18T01:38:57;100985.88;;;-4.17;68.85
70323;BME280;57735;56.264;43.898;2023-02-18T01:41:31;100978.22;;;-4.22;68.58
70323;BME280;57735;56.264;43.898;2023-02-18T01:44:21;100980.88;;;-4.24;68.92
70323;BME280;57735;56.264;43.898;2023-02-18T01:46:52;100974.97;;;-4.30;68.35
70323;BME280;57735;56.264;43.898;2023-02-18T01:49:26;100980.28;;;-4.33;68.64
70323;BME280;57735;56.264;43.898;2023-02-18T01:52:02;100975.91;;;-4.33;68.81
70323;BME280;57735;56.264;43.898;2023-02-18T01:54:44;100971.72;;;-4.37;68.47
70323;BME280;57735;56.264;43.898;2023-02-18T01:57:19;100978.00;;;-4.44;68.64
70323;BME280;57735;56.264;43.898;2023-02-18T01:59:54;100965.09;;;-4.48;68.97
70323;BME280;57735;56.264;43.898;2023-02-18T02:02:27;100960.00;;;-4.51;69.47
70323;BME280;57735;56.264;43.898;2023-02-18T02:05:01;100957.38;;;-4.51;69.07
70323;BME280;57735;56.264;43.898;2023-02-18T02:07:34;100962.50;;;-4.48;69.06
70323;BME280;57735;56.264;43.898;2023-02-18T02:10:06;100960.72;;;-4.46;69.32
70323;BME280;57735;56.264;43.898;2023-02-18T02:23:56;100944.38;;;-4.51;69.18
70323;BME280;57735;56.264;43.898;2023-02-18T02:36:13;100930.13;;;-4.68;69.76
70323;BME280;57735;56.264;43.898;2023-02-18T02:38:55;100924.13;;;-4.70;69.99
70323;BME280;57735;56.264;43.898;2023-02-18T02:41:54;100925.06;;;-4.72;69.98
70323;BME280;57735;56.264;43.898;2023-02-18T02:47:23;100931.66;;;-4.61;69.72
70323;BME280;57735;56.264;43.898;2023-02-18T02:52:55;100922.16;;;-4.62;69.29
70323;BME280;57735;56.264;43.898;2023-02-18T02:55:27;100919.59;;;-4.63;69.28
70323;BME280;57735;56.264;43.898;2023-02-18T02:57:58;100912.63;;;-4.63;69.35
70323;BME280;57735;56.264;43.898;2023-02-18T03:03:31;100904.78;;;-4.61;68.98
70323;BME280;57735;56.264;43.898;2023-02-18T03:06:40;100904.13;;;-4.68;69.11
70323;BME280;57735;56.264;43.898;2023-02-18T03:12:22;100891.28;;;-4.72;69.15
70323;BME280;57735;56.264;43.898;2023-02-18T03:15:19;100880.00;;;-4.73;69.15
70323;BME280;57735;56.264;43.898;2023-02-18T03:18:06;100879.38;;;-4.81;69.13
70323;BME280;57735;56.264;43.898;2023-02-18T03:20:55;100885.69;;;-4.89;69.39
70323;BME280;57735;56.264;43.898;2023-02-18T03:23:34;100881.56;;;-4.97;69.50
70323;BME280;57735;56.264;43.898;2023-02-18T03:26:08;100877.38;;;-5.02;69.73
70323;BME280;57735;56.264;43.898;2023-02-18T03:28:40;100874.06;;;-5.07;69.84
70323;BME280;57735;56.264;43.898;2023-02-18T03:31:15;100873.25;;;-5.09;70.11
70323;BME280;57735;56.264;43.898;2023-02-18T03:34:01;100874.88;;;-5.05;70.10
70323;BME280;57735;56.264;43.898;2023-02-18T03:36:35;100873.97;;;-5.03;70.22
70323;BME280;57735;56.264;43.898;2023-02-18T03:39:09;100872.25;;;-5.04;70.70
70323;BME280;57735;56.264;43.898;2023-02-18T03:41:42;100876.59;;;-5.04;70.70
70323;BME280;57735;56.264;43.898;2023-02-18T03:44:13;100875.69;;;-5.03;70.27
70323;BME280;57735;56.264;43.898;2023-02-18T03:46:44;100880.09;;;-5.05;70.16
70323;BME280;57735;56.264;43.898;2023-02-18T03:49:15;100884.34;;;-5.03;70.02
70323;BME280;57735;56.264;43.898;2023-02-18T03:51:46;100868.59;;;-4.98;70.15
70323;BME280;57735;56.264;43.898;2023-02-18T03:54:17;100859.25;;;-5.04;70.06
70323;BME280;57735;56.264;43.898;2023-02-18T03:56:48;100871.19;;;-4.98;70.37
70323;BME280;57735;56.264;43.898;2023-02-18T03:59:19;100862.50;;;-4.97;69.94
70323;BME280;57735;56.264;43.898;2023-02-18T04:01:58;100873.00;;;-5.00;69.87
70323;BME280;57735;56.264;43.898;2023-02-18T04:04:29;100865.19;;;-5.00;69.80
70323;BME280;57735;56.264;43.898;2023-02-18T04:07:00;100860.00;;;-5.00;69.84
70323;BME280;57735;56.264;43.898;2023-02-18T04:09:30;100854.94;;;-5.05;69.65
70323;BME280;57735;56.264;43.898;2023-02-18T04:12:01;100848.13;;;-5.09;69.92
70323;BME280;57735;56.264;43.898;2023-02-18T04:14:32;100852.38;;;-5.06;70.08
70323;BME280;57735;56.264;43.898;2023-02-18T04:17:03;100848.13;;;-5.09;69.80
70323;BME280;57735;56.264;43.898;2023-02-18T04:19:34;100850.66;;;-5.06;69.76
70323;BME280;57735;56.264;43.898;2023-02-18T04:22:05;100850.56;;;-5.03;69.80
70323;BME280;57735;56.264;43.898;2023-02-18T04:24:36;100855.66;;;-5.00;69.36
70323;BME280;57735;56.264;43.898;2023-02-18T04:27:07;100855.59;;;-4.98;69.49
70323;BME280;57735;56.264;43.898;2023-02-18T04:29:38;100840.06;;;-5.00;69.60
70323;BME280;57735;56.264;43.898;2023-02-18T04:32:08;100844.28;;;-4.96;69.70
70323;BME280;57735;56.264;43.898;2023-02-18T04:34:39;100857.06;;;-4.88;69.74
70323;BME280;57735;56.264;43.898;2023-02-18T04:37:10;100849.25;;;-4.88;69.75
70323;BME280;57735;56.264;43.898;2023-02-18T04:39:43;100847.28;;;-4.80;69.73
70323;BME280;57735;56.264;43.898;2023-02-18T04:42:14;100851.56;;;-4.79;69.57
70323;BME280;57735;56.264;43.898;2023-02-18T04:44:44;100844.53;;;-4.75;69.35
70323;BME280;57735;56.264;43.898;2023-02-18T04:47:15;100849.63;;;-4.71;69.48
70323;BME280;57735;56.264;43.898;2023-02-18T04:49:46;100849.69;;;-4.74;69.29
70323;BME280;57735;56.264;43.898;2023-02-18T04:52:20;100849.91;;;-4.81;68.94
70323;BME280;57735;56.264;43.898;2023-02-18T04:54:50;100845.81;;;-4.88;68.89
70323;BME280;57735;56.264;43.898;2023-02-18T04:57:23;100845.13;;;-4.95;69.05
70323;BME280;57735;56.264;43.898;2023-02-18T04:59:54;100850.31;;;-4.95;69.51
70323;BME280;57735;56.264;43.898;2023-02-18T05:02:25;100853.69;;;-4.92;69.95
70323;BME280;57735;56.264;43.898;2023-02-18T05:04:56;100850.16;;;-4.89;69.32
70323;BME280;57735;56.264;43.898;2023-02-18T05:07:27;100836.34;;;-4.91;69.22
70323;BME280;57735;56.264;43.898;2023-02-18T05:09:57;100844.88;;;-4.86;69.18
70323;BME280;57735;56.264;43.898;2023-02-18T05:12:28;100834.56;;;-4.89;69.04
70323;BME280;57735;56.264;43.898;2023-02-18T05:14:59;100836.22;;;-4.86;69.15
70323;BME280;57735;56.264;43.898;2023-02-18T05:17:30;100842.28;;;-4.86;69.17
70323;BME280;57735;56.264;43.898;2023-02-18T05:20:01;100843.91;;;-4.83;69.44
70323;BME280;57735;56.264;43.898;2023-02-18T05:22:35;100837.59;;;-4.75;69.17
70323;BME280;57735;56.264;43.898;2023-02-18T05:25:06;100832.41;;;-4.75;68.16
70323;BME280;57735;56.264;43.898;2023-02-18T05:27:37;100823.69;;;-4.74;68.62
70323;BME280;57735;56.264;43.898;2023-02-18T05:30:08;100824.34;;;-4.67;68.87
70323;BME280;57735;56.264;43.898;2023-02-18T05:32:39;100816.22;;;-4.57;68.96
70323;BME280;57735;56.264;43.898;2023-02-18T05:35:10;100823.78;;;-4.49;68.33
70323;BME280;57735;56.264;43.898;2023-02-18T05:37:40;100811.59;;;-4.47;67.63
70323;BME280;57735;56.264;43.898;2023-02-18T05:40:11;100820.44;;;-4.52;67.44
70323;BME280;57735;56.264;43.898;2023-02-18T05:42:45;100814.22;;;-4.48;67.27
70323;BME280;57735;56.264;43.898;2023-02-18T05:45:16;100814.22;;;-4.48;66.72
70323;BME280;57735;56.264;43.898;2023-02-18T05:47:47;100802.25;;;-4.52;67.07
70323;BME280;57735;56.264;43.898;2023-02-18T05:50:18;100808.38;;;-4.55;66.83
70323;BME280;57735;56.264;43.898;2023-02-18T05:52:49;100805.81;;;-4.57;66.62
70323;BME280;57735;56.264;43.898;2023-02-18T05:55:24;100804.88;;;-4.54;66.89
70323;BME280;57735;56.264;43.898;2023-02-18T05:57:55;100799.47;;;-4.48;67.18
70323;BME280;57735;56.264;43.898;2023-02-18T06:00:26;100796.63;;;-4.40;66.88
70323;BME280;57735;56.264;43.898;2023-02-18T06:02:59;100793.22;;;-4.42;66.30
70323;BME280;57735;56.264;43.898;2023-02-18T06:05:30;100794.88;;;-4.40;66.20
70323;BME280;57735;56.264;43.898;2023-02-18T06:08:00;100786.09;;;-4.36;66.44
70323;BME280;57735;56.264;43.898;2023-02-18T06:10:31;100791.44;;;-4.40;66.01
70323;BME280;57735;56.264;43.898;2023-02-18T06:13:02;100787.94;;;-4.39;66.02
70323;BME280;57735;56.264;43.898;2023-02-18T06:15:33;100787.94;;;-4.39;65.71
70323;BME280;57735;56.264;43.898;2023-02-18T06:18:05;100787.94;;;-4.39;65.77
70323;BME280;57735;56.264;43.898;2023-02-18T06:20:38;100778.09;;;-4.31;65.70
70323;BME280;57735;56.264;43.898;2023-02-18T06:23:09;100778.72;;;-4.23;66.02
70323;BME280;57735;56.264;43.898;2023-02-18T06:25:42;100776.75;;;-4.16;65.79
70323;BME280;57735;56.264;43.898;2023-02-18T06:28:13;100769.56;;;-4.08;65.48
70323;BME280;57735;56.264;43.898;2023-02-18T06:30:45;100764.19;;;-4.04;64.72
70323;BME280;57735;56.264;43.898;2023-02-18T06:33:16;100762.50;;;-4.05;64.94
70323;BME280;57735;56.264;43.898;2023-02-18T06:36:03;100757.16;;;-4.02;64.58
70323;BME280;57735;56.264;43.898;2023-02-18T06:38:40;100750.94;;;-3.98;64.26
70323;BME280;57735;56.264;43.898;2023-02-18T06:41:13;100752.69;;;-3.98;63.91
70323;BME280;57735;56.264;43.898;2023-02-18T06:43:43;100748.25;;;-3.95;64.53
70323;BME280;57735;56.264;43.898;2023-02-18T06:46:14;100753.34;;;-3.92;63.76
70323;BME280;57735;56.264;43.898;2023-02-18T06:48:48;100746.50;;;-3.94;63.85
70323;BME280;57735;56.264;43.898;2023-02-18T06:51:21;100751.38;;;-3.85;63.89
70323;BME280;57735;56.264;43.898;2023-02-18T06:53:52;100757.28;;;-3.80;63.94
70323;BME280;57735;56.264;43.898;2023-02-18T06:56:31;100746.75;;;-3.77;63.90
70323;BME280;57735;56.264;43.898;2023-02-18T06:59:02;100739.09;;;-3.81;63.32
70323;BME280;57735;56.264;43.898;2023-02-18T07:01:33;100743.50;;;-3.83;63.12
70323;BME280;57735;56.264;43.898;2023-02-18T07:04:03;100733.13;;;-3.85;63.47
70323;BME280;57735;56.264;43.898;2023-02-18T07:06:34;100744.19;;;-3.78;63.42
70323;BME280;57735;56.264;43.898;2023-02-18T07:09:05;100734.38;;;-3.70;63.64
70323;BME280;57735;56.264;43.898;2023-02-18T07:11:36;100723.72;;;-3.64;62.89
70323;BME280;57735;56.264;43.898;2023-02-18T07:14:07;100720.25;;;-3.65;63.01
70323;BME280;57735;56.264;43.898;2023-02-18T07:16:38;100717.59;;;-3.63;62.82
70323;BME280;57735;56.264;43.898;2023-02-18T07:19:08;100713.81;;;-3.55;62.96
70323;BME280;57735;56.264;43.898;2023-02-18T07:21:39;100703.34;;;-3.53;62.59
70323;BME280;57735;56.264;43.898;2023-02-18T07:24:10;100708.56;;;-3.53;62.40
70323;BME280;57735;56.264;43.898;2023-02-18T07:26:41;100711.94;;;-3.51;62.67
70323;BME280;57735;56.264;43.898;2023-02-18T07:29:12;100706.13;;;-3.58;62.33
70323;BME280;57735;56.264;43.898;2023-02-18T07:31:45;100704.19;;;-3.53;62.17
70323;BME280;57735;56.264;43.898;2023-02-18T07:34:16;100700.53;;;-3.48;62.26
70323;BME280;57735;56.264;43.898;2023-02-18T07:36:47;100711.72;;;-3.45;61.54
70323;BME280;57735;56.264;43.898;2023-02-18T07:39:17;100710.88;;;-3.45;61.59
70323;BME280;57735;56.264;43.898;2023-02-18T07:41:53;100701.19;;;-3.42;62.00
70323;BME280;57735;56.264;43.898;2023-02-18T07:44:26;100700.81;;;-3.33;61.99
70323;BME280;57735;56.264;43.898;2023-02-18T07:46:57;100698.94;;;-3.29;61.50
70323;BME280;57735;56.264;43.898;2023-02-18T07:49:30;100696.91;;;-3.21;61.88
70323;BME280;57735;56.264;43.898;2023-02-18T07:52:01;100694.00;;;-3.35;61.07
70323;BME280;57735;56.264;43.898;2023-02-18T07:54:32;100698.53;;;-3.40;61.55
70323;BME280;57735;56.264;43.898;2023-02-18T07:57:03;100685.31;;;-3.36;61.41
70323;BME280;57735;56.264;43.898;2023-02-18T07:59:34;100683.38;;;-3.31;61.34
70323;BME280;57735;56.264;43.898;2023-02-18T08:02:16;100677.09;;;-3.25;61.37
70323;BME280;57735;56.264;43.898;2023-02-18T08:04:49;100675.38;;;-3.26;60.74
70323;BME280;57735;56.264;43.898;2023-02-18T08:07:21;100679.75;;;-3.27;61.00
70323;BME280;57735;56.264;43.898;2023-02-18T08:09:52;100682.34;;;-3.27;61.19
70323;BME280;57735;56.264;43.898;2023-02-18T08:12:23;100670.91;;;-3.23;61.66
70323;BME280;57735;56.264;43.898;2023-02-18T08:14:54;100665.44;;;-3.17;61.51
70323;BME280;57735;56.264;43.898;2023-02-18T08:17:25;100658.84;;;-3.03;61.29
70323;BME280;57735;56.264;43.898;2023-02-18T08:19:58;100658.53;;;-2.96;60.83
70323;BME280;57735;56.264;43.898;2023-02-18T08:22:28;100652.34;;;-2.93;60.67
70323;BME280;57735;56.264;43.898;2023-02-18T08:24:59;100648.72;;;-2.89;60.75
70323;BME280;57735;56.264;43.898;2023-02-18T08:27:33;100645.91;;;-2.85;60.53
70323;BME280;57735;56.264;43.898;2023-02-18T08:30:04;100644.06;;;-2.83;60.64
70323;BME280;57735;56.264;43.898;2023-02-18T08:32:35;100644.94;;;-2.82;60.68
70323;BME280;57735;56.264;43.898;2023-02-18T08:35:10;100639.25;;;-2.92;60.80
70323;BME280;57735;56.264;43.898;2023-02-18T08:37:41;100627.13;;;-2.93;60.72
70323;BME280;57735;56.264;43.898;2023-02-18T08:40:12;100633.00;;;-2.88;60.77
70323;BME280;57735;56.264;43.898;2023-02-18T08:42:44;100644.41;;;-2.90;60.21
70323;BME280;57735;56.264;43.898;2023-02-18T08:45:14;100635.84;;;-2.94;60.64
70323;BME280;57735;56.264;43.898;2023-02-18T08:47:45;100626.50;;;-2.99;60.49
70323;BME280;57735;56.264;43.898;2023-02-18T08:50:18;100628.41;;;-3.03;60.68
70323;BME280;57735;56.264;43.898;2023-02-18T08:52:51;100632.63;;;-3.00;60.98
70323;BME280;57735;56.264;43.898;2023-02-18T08:55:22;100623.84;;;-2.98;60.73
70323;BME280;57735;56.264;43.898;2023-02-18T08:57:54;100625.47;;;-2.95;60.97
70323;BME280;57735;56.264;43.898;2023-02-18T09:00:27;100621.16;;;-2.96;60.53
70323;BME280;57735;56.264;43.898;2023-02-18T09:02:58;100615.09;;;-2.97;60.41
70323;BME280;57735;56.264;43.898;2023-02-18T09:05:29;100614.94;;;-2.92;60.55
70323;BME280;57735;56.264;43.898;2023-02-18T09:08:00;100611.84;;;-3.02;59.86
70323;BME280;57735;56.264;43.898;2023-02-18T09:10:31;100617.88;;;-3.01;60.54
70323;BME280;57735;56.264;43.898;2023-02-18T09:13:04;100619.84;;;-3.06;60.47
70323;BME280;57735;56.264;43.898;2023-02-18T09:15:35;100605.06;;;-3.28;60.34
70323;BME280;57735;56.264;43.898;2023-02-18T09:18:06;100614.41;;;-3.22;60.62
70323;BME280;57735;56.264;43.898;2023-02-18T09:20:41;100610.03;;;-3.22;60.71
70323;BME280;57735;56.264;43.898;2023-02-18T09:23:12;100611.47;;;-3.14;61.26
70323;BME280;57735;56.264;43.898;2023-02-18T09:25:42;100601.72;;;-3.09;61.29
70323;BME280;57735;56.264;43.898;2023-02-18T09:28:13;100598.72;;;-3.00;60.90
70323;BME280;57735;56.264;43.898;2023-02-18T09:30:44;100592.59;;;-2.99;60.82
70323;BME280;57735;56.264;43.898;2023-02-18T09:33:15;100594.38;;;-3.00;60.50
70323;BME280;57735;56.264;43.898;2023-02-18T09:35:46;100592.09;;;-3.07;60.73
70323;BME280;57735;56.264;43.898;2023-02-18T09:38:17;100578.66;;;-3.19;60.92
70323;BME280;57735;56.264;43.898;2023-02-18T09:40:50;100585.69;;;-3.21;60.78
70323;BME280;57735;56.264;43.898;2023-02-18T09:43:28;100582.06;;;-3.18;60.47
70323;BME280;57735;56.264;43.898;2023-02-18T09:46:01;100573.78;;;-3.06;60.98
70323;BME280;57735;56.264;43.898;2023-02-18T09:48:35;100569.06;;;-2.98;60.70
70323;BME280;57735;56.264;43.898;2023-02-18T09:51:12;100567.81;;;-2.88;60.94
70323;BME280;57735;56.264;43.898;2023-02-18T09:53:44;100557.81;;;-2.78;60.87
70323;BME280;57735;56.264;43.898;2023-02-18T09:56:22;100565.38;;;-2.72;60.57
70323;BME280;57735;56.264;43.898;2023-02-18T09:58:57;100566.19;;;-2.70;60.66
70323;BME280;57735;56.264;43.898;2023-02-18T10:01:31;100556.97;;;-2.78;60.77
70323;BME280;57735;56.264;43.898;2023-02-18T10:04:24;100557.63;;;-2.94;60.29
70323;BME280;57735;56.264;43.898;2023-02-18T10:06:57;100545.66;;;-2.99;61.00
70323;BME280;57735;56.264;43.898;2023-02-18T10:09:35;100541.53;;;-3.03;60.69
70323;BME280;57735;56.264;43.898;2023-02-18T10:12:18;100534.78;;;-3.09;60.66
70323;BME280;57735;56.264;43.898;2023-02-18T10:14:58;100533.16;;;-3.11;61.01
70323;BME280;57735;56.264;43.898;2023-02-18T10:17:31;100538.13;;;-3.05;61.52
70323;BME280;57735;56.264;43.898;2023-02-18T10:20:03;100529.50;;;-3.07;60.88
70323;BME280;57735;56.264;43.898;2023-02-18T10:22:34;100528.72;;;-3.09;61.42
70323;BME280;57735;56.264;43.898;2023-02-18T10:25:18;100524.41;;;-3.10;61.29
70323;BME280;57735;56.264;43.898;2023-02-18T10:27:51;100529.75;;;-3.13;61.54
70323;BME280;57735;56.264;43.898;2023-02-18T10:30:32;100521.75;;;-3.09;61.41
70323;BME280;57735;56.264;43.898;2023-02-18T10:33:17;100524.38;;;-3.09;61.25
70323;BME280;57735;56.264;43.898;2023-02-18T10:36:06;100526.38;;;-3.16;61.49
70323;BME280;57735;56.264;43.898;2023-02-18T10:41:33;100516.69;;;-3.34;61.95
70323;BME280;57735;56.264;43.898;2023-02-18T10:50:01;100501.44;;;-3.43;61.65
70323;BME280;57735;56.264;43.898;2023-02-18T10:52:42;100505.03;;;-3.45;61.89
70323;BME280;57735;56.264;43.898;2023-02-18T10:55:15;100487.75;;;-3.48;62.07
70323;BME280;57735;56.264;43.898;2023-02-18T10:57:50;100490.22;;;-3.45;62.29
70323;BME280;57735;56.264;43.898;2023-02-18T11:00:24;100487.88;;;-3.51;62.06
70323;BME280;57735;56.264;43.898;2023-02-18T11:03:11;100494.94;;;-3.53;62.37
70323;BME280;57735;56.264;43.898;2023-02-18T11:05:45;100494.06;;;-3.54;62.33
70323;BME280;57735;56.264;43.898;2023-02-18T11:08:21;100491.53;;;-3.55;62.29
70323;BME280;57735;56.264;43.898;2023-02-18T11:10:53;100492.38;;;-3.55;62.49
70323;BME280;57735;56.264;43.898;2023-02-18T11:13:29;100485.34;;;-3.53;62.38
70323;BME280;57735;56.264;43.898;2023-02-18T11:16:05;100481.75;;;-3.50;61.94
70323;BME280;57735;56.264;43.898;2023-02-18T11:18:41;100476.53;;;-3.50;61.57
70323;BME280;57735;56.264;43.898;2023-02-18T11:23:51;100474.44;;;-3.84;61.78
70323;BME280;57735;56.264;43.898;2023-02-18T11:26:32;100465.03;;;-3.87;62.02
70323;BME280;57735;56.264;43.898;2023-02-18T11:31:50;100465.94;;;-3.88;62.20
70323;BME280;57735;56.264;43.898;2023-02-18T11:34:27;100461.84;;;-3.95;62.26
70323;BME280;57735;56.264;43.898;2023-02-18T11:37:16;100460.03;;;-3.93;62.29
70323;BME280;57735;56.264;43.898;2023-02-18T11:39:53;100465.66;;;-3.81;62.48
70323;BME280;57735;56.264;43.898;2023-02-18T11:42:26;100459.31;;;-3.74;62.22
70323;BME280;57735;56.264;43.898;2023-02-18T11:44:58;100467.19;;;-3.76;62.14
70323;BME280;57735;56.264;43.898;2023-02-18T11:47:36;100455.97;;;-3.78;61.63
70323;BME280;57735;56.264;43.898;2023-02-18T11:52:44;100449.81;;;-3.75;61.80
70323;BME280;57735;56.264;43.898;2023-02-18T11:55:18;100447.94;;;-3.72;62.15
70323;BME280;57735;56.264;43.898;2023-02-18T11:57:55;100439.91;;;-3.67;62.46
70323;BME280;57735;56.264;43.898;2023-02-18T12:00:48;100439.00;;;-3.66;61.61
70323;BME280;57735;56.264;43.898;2023-02-18T12:03:43;100434.56;;;-3.64;61.91
70323;BME280;57735;56.264;43.898;2023-02-18T12:06:24;100435.31;;;-3.61;61.71
70323;BME280;57735;56.264;43.898;2023-02-18T12:09:13;100425.72;;;-3.60;61.46
70323;BME280;57735;56.264;43.898;2023-02-18T12:11:51;100427.44;;;-3.59;61.83
70323;BME280;57735;56.264;43.898;2023-02-18T12:14:23;100420.00;;;-3.48;62.25
70323;BME280;57735;56.264;43.898;2023-02-18T12:25:50;100414.91;;;-3.71;61.94
70323;BME280;57735;56.264;43.898;2023-02-18T12:31:45;100413.66;;;-3.83;62.37
70323;BME280;57735;56.264;43.898;2023-02-18T12:34:30;100410.97;;;-3.81;62.50
70323;BME280;57735;56.264;43.898;2023-02-18T12:37:24;100409.28;;;-3.82;62.21
70323;BME280;57735;56.264;43.898;2023-02-18T12:43:37;100405.38;;;-3.93;62.05
70323;BME280;57735;56.264;43.898;2023-02-18T13:00:44;100388.97;;;-3.95;62.48
70323;BME280;57735;56.264;43.898;2023-02-18T13:12:56;100371.75;;;-3.99;61.76
70323;BME280;57735;56.264;43.898;2023-02-18T13:15:24;100366.16;;;-4.10;61.81
70323;BME280;57735;56.264;43.898;2023-02-18T13:18:00;100363.78;;;-4.16;61.87
70323;BME280;57735;56.264;43.898;2023-02-18T13:23:17;100357.38;;;-4.29;61.82
70323;BME280;57735;56.264;43.898;2023-02-18T13:25:59;100363.56;;;-4.32;62.44
70323;BME280;57735;56.264;43.898;2023-02-18T13:37:36;100353.53;;;-4.41;62.16
70323;BME280;57735;56.264;43.898;2023-02-18T13:40:21;100363.19;;;-4.44;62.52
70323;BME280;57735;56.264;43.898;2023-02-18T13:42:53;100361.66;;;-4.50;62.50
70323;BME280;57735;56.264;43.898;2023-02-18T13:45:29;100354.06;;;-4.54;62.39
70323;BME280;57735;56.264;43.898;2023-02-18T13:48:01;100352.38;;;-4.55;62.39
70323;BME280;57735;56.264;43.898;2023-02-18T13:50:39;100351.69;;;-4.61;62.45
70323;BME280;57735;56.264;43.898;2023-02-18T13:53:14;100362.78;;;-4.55;62.75
70323;BME280;57735;56.264;43.898;2023-02-18T13:56:01;100361.25;;;-4.61;62.36
70323;BME280;57735;56.264;43.898;2023-02-18T13:58:37;100351.06;;;-4.67;62.32
70323;BME280;57735;56.264;43.898;2023-02-18T14:06:14;100355.00;;;-4.79;62.64
70323;BME280;57735;56.264;43.898;2023-02-18T14:08:49;100341.09;;;-4.78;62.58
70323;BME280;57735;56.264;43.898;2023-02-18T14:11:32;100348.19;;;-4.83;62.10
70323;BME280;57735;56.264;43.898;2023-02-18T14:27:44;100338.72;;;-4.84;62.60
70323;BME280;57735;56.264;43.898;2023-02-18T14:30:19;100342.28;;;-4.86;62.25
70323;BME280;57735;56.264;43.898;2023-02-18T14:32:59;100335.47;;;-4.89;62.70
70323;BME280;57735;56.264;43.898;2023-02-18T14:35:34;100338.84;;;-4.87;62.55
70323;BME280;57735;56.264;43.898;2023-02-18T14:38:28;100330.19;;;-4.87;62.31
70323;BME280;57735;56.264;43.898;2023-02-18T14:41:25;100324.94;;;-4.86;62.16
70323;BME280;57735;56.264;43.898;2023-02-18T14:49:58;100320.50;;;-4.84;62.23
70323;BME280;57735;56.264;43.898;2023-02-18T14:52:42;100323.16;;;-4.85;61.76
70323;BME280;57735;56.264;43.898;2023-02-18T14:55:24;100312.16;;;-4.92;61.85
70323;BME280;57735;56.264;43.898;2023-02-18T14:58:01;100310.59;;;-4.96;61.79
70323;BME280;57735;56.264;43.898;2023-02-18T15:00:38;100323.69;;;-4.99;61.62
70323;BME280;57735;56.264;43.898;2023-02-18T15:03:14;100313.34;;;-5.01;61.97
70323;BME280;57735;56.264;43.898;2023-02-18T15:05:49;100313.41;;;-5.02;61.76
70323;BME280;57735;56.264;43.898;2023-02-18T15:08:25;100308.09;;;-4.99;62.03
70323;BME280;57735;56.264;43.898;2023-02-18T15:10:59;100307.97;;;-4.96;61.48
70323;BME280;57735;56.264;43.898;2023-02-18T15:13:36;100314.81;;;-4.94;62.13
70323;BME280;57735;56.264;43.898;2023-02-18T15:16:13;100311.28;;;-4.91;61.79
70323;BME280;57735;56.264;43.898;2023-02-18T15:18:55;100298.88;;;-4.84;62.23
70323;BME280;57735;56.264;43.898;2023-02-18T15:21:34;100316.09;;;-4.82;61.96